Time;durP1;ratioP1;P1;durP2;ratioP2;P2;SDS_P1;SDS_P2;PMS_P1;PMS_P2;Temp;Humidity;BMP_temperature;BMP_pressure;BME280_temperature;BME280_humidity;BME280_pressure;Samples;Min_cycle;Max_cycle;Signal;HPM_P1;HPM_P2
2022/02/26 00:01:33;;;;;;;23.33;16.58;;;;;;;1.43;100.00;100855.78;4975140;28;20275;-82
2022/02/26 00:03:59;;;;;;;18.33;15.07;;;;;;;1.48;100.00;100857.56;4974866;28;20192;-82
2022/02/26 00:06:26;;;;;;;22.42;14.48;;;;;;;1.54;100.00;100857.53;4975467;28;20354;-82
2022/02/26 00:08:53;;;;;;;19.77;15.70;;;;;;;1.61;100.00;100868.16;4974626;28;20188;-82
2022/02/26 00:11:19;;;;;;;23.08;15.63;;;;;;;1.42;100.00;100859.31;4975256;28;20188;-82
2022/02/26 00:13:46;;;;;;;22.95;15.07;;;;;;;1.58;100.00;100854.00;4975065;28;20287;-82
2022/02/26 00:16:14;;;;;;;21.45;14.60;;;;;;;1.52;100.00;100856.69;4974939;28;20208;-82
2022/02/26 00:18:42;;;;;;;20.25;14.68;;;;;;;1.52;100.00;100851.38;4975204;28;20283;-83
2022/02/26 00:21:09;;;;;;;21.33;14.88;;;;;;;1.50;100.00;100854.00;4974553;28;20232;-82
2022/02/26 00:23:36;;;;;;;20.92;15.80;;;;;;;1.25;100.00;100856.69;4974946;28;20208;-82
2022/02/26 00:26:03;;;;;;;22.35;16.10;;;;;;;1.10;100.00;100861.09;4974450;28;20295;-82
2022/02/26 00:28:29;;;;;;;21.52;16.10;;;;;;;0.97;100.00;100865.50;4975031;28;20251;-81
2022/02/26 00:30:56;;;;;;;25.48;17.48;;;;;;;1.00;100.00;100863.75;4974520;28;20227;-83
2022/02/26 00:33:24;;;;;;;21.50;15.85;;;;;;;1.07;100.00;100861.97;4962505;28;20268;-82
2022/02/26 00:35:51;;;;;;;23.83;16.33;;;;;;;1.11;100.00;100869.06;4961608;28;20200;-82
2022/02/26 00:38:17;;;;;;;21.75;14.40;;;;;;;1.05;100.00;100871.72;4965868;28;20284;-82
2022/02/26 00:40:44;;;;;;;25.10;15.77;;;;;;;1.03;100.00;100871.69;4961919;28;20200;-81
2022/02/26 00:43:11;;;;;;;25.83;16.25;;;;;;;0.90;100.00;100869.03;4963767;28;20225;-82
2022/02/26 00:45:37;;;;;;;22.73;15.07;;;;;;;1.04;100.00;100867.25;4961031;28;20671;-82
2022/02/26 00:48:04;;;;;;;20.33;15.52;;;;;;;0.99;100.00;100867.25;4965238;28;20200;-82
2022/02/26 00:50:31;;;;;;;25.20;17.15;;;;;;;0.90;100.00;100869.91;4960578;28;20289;-82
2022/02/26 00:52:58;;;;;;;26.63;14.70;;;;;;;0.74;100.00;100878.72;4962251;28;20275;-82
2022/02/26 00:55:25;;;;;;;27.13;16.48;;;;;;;0.79;100.00;100876.94;4960718;28;20217;-82
2022/02/26 00:57:52;;;;;;;26.20;16.40;;;;;;;0.67;100.00;100883.13;4956571;28;20200;-82
2022/02/26 01:00:19;;;;;;;25.45;17.02;;;;;;;0.60;100.00;100881.34;4963258;28;20283;-82
2022/02/26 01:02:46;;;;;;;25.58;17.60;;;;;;;0.41;100.00;100891.00;4965649;28;20192;-82
2022/02/26 01:05:13;;;;;;;25.63;16.55;;;;;;;0.37;100.00;100894.50;4957651;28;20197;-82
2022/02/26 01:07:41;;;;;;;26.63;17.25;;;;;;;0.54;100.00;100903.41;4965770;28;20681;-82
2022/02/26 01:10:09;;;;;;;25.55;16.65;;;;;;;0.74;100.00;100899.94;4965915;28;20191;-82
2022/02/26 01:12:36;;;;;;;25.95;17.33;;;;;;;0.64;100.00;100900.78;4958773;28;20193;-82
2022/02/26 01:15:04;;;;;;;25.02;17.40;;;;;;;0.74;100.00;100900.81;4970149;28;20260;-82
2022/02/26 01:17:31;;;;;;;23.20;16.95;;;;;;;0.67;100.00;100892.84;4949272;28;20188;-82
2022/02/26 01:19:58;;;;;;;28.23;17.33;;;;;;;0.60;100.00;100903.41;4962788;28;20185;-82
2022/02/26 01:22:24;;;;;;;26.83;18.25;;;;;;;0.67;100.00;100901.66;4962699;28;20623;-82
2022/02/26 01:24:52;;;;;;;28.25;19.73;;;;;;;0.61;100.00;100910.50;4964450;28;20199;-82
2022/02/26 01:27:19;;;;;;;26.70;17.95;;;;;;;0.58;100.00;100904.28;4961208;28;20209;-82
2022/02/26 01:29:46;;;;;;;27.25;18.83;;;;;;;0.41;100.00;100907.78;4965767;28;20196;-82
2022/02/26 01:32:12;;;;;;;25.73;17.50;;;;;;;0.28;100.00;100903.28;4965302;28;20746;-82
2022/02/26 01:34:39;;;;;;;27.52;18.98;;;;;;;0.18;100.00;100902.38;4962972;28;20196;-82
2022/02/26 01:37:06;;;;;;;23.08;16.77;;;;;;;0.33;100.00;100903.31;4958547;28;20235;-82
2022/02/26 01:39:33;;;;;;;26.65;17.75;;;;;;;0.37;100.00;100911.28;4961777;28;20225;-82
2022/02/26 01:42:02;;;;;;;25.08;18.33;;;;;;;0.50;100.00;100912.22;4967160;28;20703;-82
2022/02/26 01:44:28;;;;;;;28.05;18.17;;;;;;;0.53;100.00;100912.22;4957168;28;20192;-82
2022/02/26 01:46:55;;;;;;;26.55;18.48;;;;;;;0.64;100.00;100908.75;4965054;28;20220;-82
2022/02/26 01:49:22;;;;;;;29.83;17.60;;;;;;;0.78;100.00;100907.03;4958528;28;20646;-81
2022/02/26 01:51:50;;;;;;;25.25;16.88;;;;;;;0.72;100.00;100913.16;4962952;28;20290;-81
2022/02/26 01:54:18;;;;;;;27.40;16.10;;;;;;;0.94;100.00;100903.50;4965075;28;20190;-81
2022/02/26 01:56:45;;;;;;;29.85;16.85;;;;;;;1.36;100.00;100917.72;4965243;28;20201;-81
2022/02/26 01:59:13;;;;;;;23.40;17.48;;;;;;;1.55;100.00;100907.97;4962301;28;20561;-81
2022/02/26 02:01:40;;;;;;;24.65;15.75;;;;;;;1.54;100.00;100902.66;4967200;28;20196;-81
2022/02/26 02:04:06;;;;;;;26.20;16.30;;;;;;;1.18;100.00;100899.16;4958613;28;20503;-81
2022/02/26 02:06:33;;;;;;;22.48;17.00;;;;;;;1.14;100.00;100910.63;4957244;28;20737;-81
2022/02/26 02:09:00;;;;;;;24.85;17.08;;;;;;;1.12;100.00;100915.91;4964799;28;20194;-81
2022/02/26 02:11:29;;;;;;;29.88;17.17;;;;;;;1.34;100.00;100908.00;4964569;28;20284;-81
2022/02/26 02:13:55;;;;;;;30.95;18.02;;;;;;;1.52;100.00;100923.06;4968448;28;20214;-82
2022/02/26 02:16:23;;;;;;;33.08;18.65;;;;;;;1.46;100.00;100922.13;4957917;28;20284;-81
2022/02/26 02:18:50;;;;;;;41.75;19.52;;;;;;;1.56;100.00;100927.44;4956782;28;20594;-81
2022/02/26 02:21:17;;;;;;;40.40;18.35;;;;;;;1.72;100.00;100929.22;4965686;28;20271;-81
2022/02/26 02:23:45;;;;;;;56.53;19.80;;;;;;;1.84;100.00;100931.88;4953865;29;20546;-81
2022/02/26 02:26:12;;;;;;;41.08;19.75;;;;;;;1.96;100.00;100932.75;4954031;29;20305;-81
2022/02/26 02:28:40;;;;;;;36.15;19.40;;;;;;;1.41;100.00;100937.19;4965571;28;20614;-82
2022/02/26 02:31:07;;;;;;;32.80;18.80;;;;;;;1.45;100.00;100940.75;4959685;28;20564;-82
2022/02/26 02:33:38;;;;;;;40.15;18.20;;;;;;;1.31;100.00;100938.09;4958160;28;20202;-81
2022/02/26 02:36:05;;;;;;;36.60;19.77;;;;;;;1.36;100.00;100935.44;4961194;28;20204;-81
2022/02/26 02:38:32;;;;;;;33.53;19.80;;;;;;;0.91;100.00;100935.34;4963908;28;20205;-81
2022/02/26 02:41:00;;;;;;;37.35;19.40;;;;;;;0.69;100.00;100933.50;4966792;28;20197;-83
2022/02/26 02:43:27;;;;;;;34.35;20.63;;;;;;;0.71;100.00;100937.94;4964784;28;20290;-82
2022/02/26 02:45:53;;;;;;;39.72;20.58;;;;;;;0.82;100.00;100935.31;4959859;28;20188;-81
2022/02/26 02:48:20;;;;;;;35.83;19.30;;;;;;;1.22;100.00;100938.94;4967115;28;20650;-81
2022/02/26 02:50:47;;;;;;;48.10;21.13;;;;;;;0.92;100.00;100947.72;4960980;28;20195;-81
2022/02/26 02:53:16;;;;;;;42.30;21.25;;;;;;;1.19;100.00;100951.31;4964324;28;20278;-80
2022/02/26 02:55:43;;;;;;;31.65;19.60;;;;;;;1.34;100.00;100953.13;4963839;28;20294;-82
2022/02/26 02:58:11;;;;;;;47.22;19.13;;;;;;;1.16;100.00;100940.69;4964280;28;20299;-81
2022/02/26 03:00:38;;;;;;;36.70;19.17;;;;;;;1.22;100.00;100938.94;4954500;28;20311;-81
2022/02/26 03:03:07;;;;;;;34.00;17.85;;;;;;;1.45;100.00;100946.94;4961114;28;20197;-81
2022/02/26 03:05:33;;;;;;;39.67;19.85;;;;;;;1.30;100.00;100946.03;4961128;28;20283;-81
2022/02/26 03:08:00;;;;;;;27.55;17.92;;;;;;;1.39;100.00;100954.00;4958954;28;20569;-81
2022/02/26 03:10:27;;;;;;;36.03;19.23;;;;;;;1.22;100.00;100948.66;4963112;28;20204;-81
2022/02/26 03:12:53;;;;;;;35.25;18.17;;;;;;;1.10;100.00;100944.22;4964591;28;20207;-81
2022/02/26 03:15:23;;;;;;;31.80;18.10;;;;;;;1.11;100.00;100950.41;4966226;28;20186;-81
2022/02/26 03:17:50;;;;;;;30.80;18.20;;;;;;;1.22;100.00;100946.91;4965697;28;20197;-82
2022/02/26 03:20:17;;;;;;;35.42;19.65;;;;;;;1.25;100.00;100951.34;4962705;28;20193;-81
2022/02/26 03:22:44;;;;;;;42.25;18.58;;;;;;;1.21;100.00;100955.72;4970040;28;20721;-81
2022/02/26 03:25:11;;;;;;;28.27;19.13;;;;;;;1.24;100.00;100958.41;4962944;28;20621;-81
2022/02/26 03:27:37;;;;;;;32.67;18.42;;;;;;;1.30;100.00;100954.88;4963208;28;20204;-81
2022/02/26 03:30:06;;;;;;;31.83;18.73;;;;;;;1.20;100.00;100946.03;4963685;28;20290;-81
2022/02/26 03:32:34;;;;;;;28.33;18.15;;;;;;;1.11;100.00;100953.97;4964911;28;20251;-81
2022/02/26 03:35:01;;;;;;;32.58;18.60;;;;;;;1.16;100.00;100959.28;4949521;28;20204;-81
2022/02/26 03:37:28;;;;;;;34.30;18.85;;;;;;;1.18;100.00;100962.81;4956357;28;20687;-81
2022/02/26 03:39:54;;;;;;;30.02;18.58;;;;;;;1.54;100.00;100961.06;4953112;28;20232;-82
2022/02/26 03:42:21;;;;;;;36.13;18.45;;;;;;;1.56;100.00;100957.56;4963682;28;20288;-81
2022/02/26 03:44:48;;;;;;;31.73;19.40;;;;;;;1.71;100.00;100959.31;4965321;28;20196;-81
2022/02/26 03:47:16;;;;;;;33.88;18.30;;;;;;;1.72;100.00;100960.19;4961523;28;20204;-81
2022/02/26 03:49:44;;;;;;;36.58;20.13;;;;;;;1.87;100.00;100965.50;4961089;28;20204;-81
2022/02/26 03:52:11;;;;;;;38.42;19.80;;;;;;;1.97;100.00;100969.94;4961959;28;20200;-82
2022/02/26 03:54:38;;;;;;;38.50;19.42;;;;;;;1.99;100.00;100969.91;4960775;28;20193;-81
2022/02/26 03:57:05;;;;;;;27.75;19.17;;;;;;;2.01;100.00;100968.16;4966596;28;20287;-81
2022/02/26 03:59:31;;;;;;;29.08;17.00;;;;;;;2.14;100.00;100979.66;4963474;28;20188;-81
2022/02/26 04:01:58;;;;;;;29.45;18.92;;;;;;;2.11;100.00;100987.63;4964449;28;20208;-81
2022/02/26 04:04:25;;;;;;;25.13;17.33;;;;;;;2.17;100.00;100980.53;4966844;28;20195;-81
2022/02/26 04:06:54;;;;;;;26.88;17.92;;;;;;;2.06;100.00;100982.34;4959246;28;20196;-82
2022/02/26 04:09:21;;;;;;;27.95;18.15;;;;;;;2.11;100.00;100977.00;4966866;28;20188;-81
2022/02/26 04:11:48;;;;;;;28.50;18.70;;;;;;;2.04;100.00;100981.44;4958379;28;20633;-81
2022/02/26 04:14:14;;;;;;;31.58;19.52;;;;;;;1.92;100.00;100990.28;4963824;28;20616;-82
2022/02/26 04:16:41;;;;;;;30.33;18.98;;;;;;;2.03;100.00;100985.84;4957778;28;20196;-81
2022/02/26 04:19:08;;;;;;;27.85;17.95;;;;;;;1.99;100.00;100985.84;4962218;28;20189;-83
2022/02/26 04:21:35;;;;;;;28.92;17.52;;;;;;;2.02;100.00;100985.88;4966543;28;20289;-82
2022/02/26 04:24:04;;;;;;;26.27;16.60;;;;;;;2.18;100.00;101000.91;4959555;28;20271;-82
2022/02/26 04:26:30;;;;;;;22.52;16.13;;;;;;;2.24;100.00;101005.34;4967365;28;20194;-82
2022/02/26 04:28:57;;;;;;;26.52;16.65;;;;;;;1.89;100.00;101003.59;4966369;28;20558;-82
2022/02/26 04:31:24;;;;;;;29.77;17.05;;;;;;;1.90;100.00;100999.16;4961586;28;20247;-82
2022/02/26 04:33:52;;;;;;;25.80;16.77;;;;;;;2.12;100.00;101005.34;4964962;28;20284;-82
2022/02/26 04:36:19;;;;;;;27.52;16.27;;;;;;;2.32;100.00;101003.53;4961094;28;20272;-82
2022/02/26 04:38:45;;;;;;;25.95;17.13;;;;;;;2.32;100.00;101013.28;4963606;28;20188;-82
2022/02/26 04:41:14;;;;;;;27.60;17.08;;;;;;;2.27;100.00;101010.63;4964044;28;20279;-81
2022/02/26 04:43:43;;;;;;;26.08;16.45;;;;;;;2.32;100.00;101014.16;4966972;28;20275;-82
2022/02/26 04:46:10;;;;;;;24.02;16.83;;;;;;;2.12;100.00;101015.97;4960813;28;20196;-81
2022/02/26 04:48:37;;;;;;;26.30;17.77;;;;;;;2.31;100.00;101031.03;4963588;28;20623;-81
2022/02/26 04:51:06;;;;;;;25.90;17.02;;;;;;;2.15;100.00;101032.81;4952259;28;20277;-82
2022/02/26 04:53:33;;;;;;;28.42;17.75;;;;;;;2.16;100.00;101021.28;4965816;28;20224;-82
2022/02/26 04:55:59;;;;;;;28.83;19.00;;;;;;;1.64;100.00;101031.91;4960365;28;20195;-82
2022/02/26 04:58:27;;;;;;;27.85;18.00;;;;;;;1.71;100.00;101033.66;4964188;28;20280;-83
2022/02/26 05:00:54;;;;;;;30.25;18.48;;;;;;;1.66;100.00;101032.78;4964600;28;20204;-83
2022/02/26 05:03:21;;;;;;;25.63;17.45;;;;;;;1.72;100.00;101048.75;4959759;28;20280;-83
2022/02/26 05:05:47;;;;;;;27.35;17.33;;;;;;;1.80;100.00;101043.44;4962012;28;20200;-83
2022/02/26 05:08:14;;;;;;;29.00;17.70;;;;;;;1.74;100.00;101041.66;4959358;28;20663;-82
2022/02/26 05:10:41;;;;;;;25.95;16.13;;;;;;;1.58;100.00;101038.09;4970030;28;20643;-82
2022/02/26 05:13:07;;;;;;;26.38;18.10;;;;;;;1.67;100.00;101038.13;4973856;28;20190;-82
2022/02/26 05:15:35;;;;;;;26.50;17.42;;;;;;;1.81;100.00;101040.78;4960271;28;20205;-81
2022/02/26 05:18:02;;;;;;;28.98;18.08;;;;;;;1.89;100.00;101040.78;4964504;28;20188;-82
2022/02/26 05:20:29;;;;;;;26.90;17.30;;;;;;;1.77;100.00;101040.78;4962467;28;20203;-82
2022/02/26 05:22:56;;;;;;;28.00;17.98;;;;;;;1.78;100.00;101046.06;4952050;28;20601;-82
2022/02/26 05:25:23;;;;;;;29.67;18.05;;;;;;;1.93;100.00;101047.88;4955583;29;20276;-82
2022/02/26 05:27:49;;;;;;;26.67;17.40;;;;;;;2.27;100.00;101048.72;4960836;28;20659;-82
2022/02/26 05:30:16;;;;;;;25.38;17.27;;;;;;;2.27;100.00;101048.72;4963788;28;20219;-82
2022/02/26 05:32:45;;;;;;;26.05;17.85;;;;;;;2.41;100.00;101050.50;4962971;28;20185;-82
2022/02/26 05:35:12;;;;;;;30.65;19.27;;;;;;;2.52;100.00;101046.03;4962733;28;20240;-82
2022/02/26 05:37:38;;;;;;;27.00;18.17;;;;;;;2.54;100.00;101044.25;4963254;28;20207;-82
2022/02/26 05:40:06;;;;;;;31.25;18.63;;;;;;;2.50;100.00;101045.16;4964536;28;20193;-82
2022/02/26 05:42:33;;;;;;;29.05;17.05;;;;;;;2.48;100.00;101052.25;4959747;28;20675;-82
2022/02/26 05:45:00;;;;;;;27.40;18.33;;;;;;;2.38;100.00;101045.19;4962996;28;20527;-82
2022/02/26 05:47:27;;;;;;;26.23;17.23;;;;;;;2.24;100.00;101053.19;4960077;28;20276;-81
2022/02/26 05:49:55;;;;;;;25.40;15.48;;;;;;;2.17;100.00;101046.97;4971893;28;20646;-82
2022/02/26 05:52:21;;;;;;;27.35;15.25;;;;;;;2.16;100.00;101052.28;4958605;28;20237;-81
2022/02/26 05:54:48;;;;;;;29.40;18.27;;;;;;;2.32;100.00;101055.81;4965672;28;20192;-82
2022/02/26 05:57:14;;;;;;;30.10;17.58;;;;;;;2.41;100.00;101040.72;4962317;28;20663;-80
2022/02/26 05:59:41;;;;;;;26.05;15.57;;;;;;;2.41;100.00;101042.50;4949516;28;20654;-81
2022/02/26 06:02:08;;;;;;;27.95;17.23;;;;;;;2.49;100.00;101046.06;4971393;28;20210;-81
2022/02/26 06:04:36;;;;;;;26.90;16.50;;;;;;;2.06;100.00;101039.00;4955745;28;20280;-81
2022/02/26 06:07:04;;;;;;;23.70;15.82;;;;;;;2.00;100.00;101048.75;4961635;28;20287;-82
2022/02/26 06:09:31;;;;;;;26.92;16.42;;;;;;;1.99;100.00;101057.59;4955099;28;20219;-82
2022/02/26 06:11:57;;;;;;;24.77;16.13;;;;;;;2.03;100.00;101051.41;4953948;28;20224;-82
2022/02/26 06:14:24;;;;;;;25.00;14.90;;;;;;;2.02;100.00;101057.63;4960807;28;20203;-83
2022/02/26 06:16:50;;;;;;;24.70;16.05;;;;;;;1.74;100.00;101057.59;4963617;28;20243;-82
2022/02/26 06:19:17;;;;;;;27.23;16.00;;;;;;;1.89;100.00;101043.44;4963920;28;20548;-82
2022/02/26 06:21:46;;;;;;;25.70;16.45;;;;;;;1.97;100.00;101062.03;4958532;28;20605;-80
2022/02/26 06:24:14;;;;;;;30.60;17.95;;;;;;;1.95;100.00;101061.16;4964038;28;20196;-81
2022/02/26 06:26:40;;;;;;;27.65;17.85;;;;;;;1.86;100.00;101062.03;4964852;28;20704;-81
2022/02/26 06:29:07;;;;;;;27.05;18.13;;;;;;;1.61;100.00;101051.38;4964548;28;20310;-80
2022/02/26 06:31:34;;;;;;;25.98;15.55;;;;;;;1.69;100.00;101063.78;4957386;28;20593;-80
2022/02/26 06:34:00;;;;;;;28.77;17.20;;;;;;;1.74;100.00;101056.69;4962090;28;20550;-82
2022/02/26 06:36:27;;;;;;;23.73;16.35;;;;;;;1.66;100.00;101051.38;4956801;28;20220;-80
2022/02/26 06:38:54;;;;;;;25.67;16.85;;;;;;;1.52;100.00;101061.97;4964882;28;20554;-80
2022/02/26 06:41:22;;;;;;;27.45;17.58;;;;;;;1.57;100.00;101067.28;4962423;28;20188;-80
2022/02/26 06:43:48;;;;;;;26.42;16.50;;;;;;;1.60;100.00;101059.31;4956388;28;20196;-81
2022/02/26 06:46:15;;;;;;;27.95;16.52;;;;;;;1.66;100.00;101054.03;4961329;28;20655;-80
2022/02/26 06:48:41;;;;;;;22.13;15.73;;;;;;;1.61;100.00;101045.19;4961351;28;20213;-80
2022/02/26 06:51:08;;;;;;;24.23;16.08;;;;;;;1.65;100.00;101047.84;4963203;28;20200;-83
2022/02/26 06:53:35;;;;;;;26.25;15.90;;;;;;;1.45;100.00;101053.13;4956561;28;20201;-83
2022/02/26 06:56:02;;;;;;;23.13;15.70;;;;;;;1.49;100.00;101056.63;4968959;28;20283;-84
2022/02/26 06:58:30;;;;;;;26.45;16.60;;;;;;;1.42;100.00;101054.84;4961234;28;20189;-84
2022/02/26 07:00:57;;;;;;;27.33;17.20;;;;;;;1.62;100.00;101053.13;4959758;28;20276;-84
2022/02/26 07:03:23;;;;;;;25.23;17.40;;;;;;;1.19;100.00;101058.31;4963461;28;20283;-81
2022/02/26 07:05:50;;;;;;;27.80;17.30;;;;;;;1.16;100.00;101058.31;4971733;28;20553;-83
2022/02/26 07:08:17;;;;;;;29.08;17.85;;;;;;;0.94;100.00;101054.69;4961163;28;20295;-84
2022/02/26 07:10:43;;;;;;;29.77;18.02;;;;;;;0.76;100.00;101067.88;4954168;28;20280;-82
2022/02/26 07:13:13;;;;;;;27.05;17.85;;;;;;;0.76;100.00;101063.44;4964970;28;20709;-84
2022/02/26 07:15:41;;;;;;;29.00;18.50;;;;;;;0.72;100.00;101074.03;4959454;28;20197;-83
2022/02/26 07:18:09;;;;;;;32.15;19.33;;;;;;;0.66;100.00;101071.38;4967347;28;20189;-83
2022/02/26 07:20:36;;;;;;;33.55;18.48;;;;;;;0.83;100.00;101077.63;4961357;28;20279;-82
2022/02/26 07:23:03;;;;;;;30.55;18.58;;;;;;;0.88;100.00;101077.66;4961937;28;20205;-82
2022/02/26 07:25:30;;;;;;;25.20;17.35;;;;;;;0.83;100.00;101080.28;4960213;28;20193;-83
2022/02/26 07:27:57;;;;;;;28.33;19.02;;;;;;;0.79;100.00;101082.03;4964810;28;20203;-85
2022/02/26 07:30:23;;;;;;;23.58;17.40;;;;;;;0.86;100.00;101085.63;4962974;28;20319;-85
2022/02/26 07:32:51;;;;;;;25.38;17.20;;;;;;;0.68;100.00;101089.03;4967533;28;20631;-83
2022/02/26 07:35:18;;;;;;;28.35;18.00;;;;;;;0.67;100.00;101081.94;4962696;28;20196;-84
2022/02/26 07:37:45;;;;;;;28.42;17.98;;;;;;;0.79;100.00;101091.75;4965981;28;20288;-83
2022/02/26 07:40:13;;;;;;;31.83;17.35;;;;;;;0.85;100.00;101097.09;4954211;28;20287;-83
2022/02/26 07:42:40;;;;;;;28.05;16.90;;;;;;;1.07;100.00;101092.78;4967714;28;20188;-82
2022/02/26 07:45:21;;;;;;;27.50;18.23;;;;;;;1.10;100.00;101095.44;4974193;28;20192;-84
2022/02/26 07:47:47;;;;;;;24.95;17.02;;;;;;;1.03;100.00;101102.47;4975384;28;20223;-83
2022/02/26 07:50:16;;;;;;;26.55;19.50;;;;;;;1.10;100.00;101095.44;4963186;28;20204;-82
2022/02/26 07:52:43;;;;;;;29.40;18.83;;;;;;;1.10;100.00;101110.47;4964207;28;20199;-82
2022/02/26 07:55:10;;;;;;;32.58;19.35;;;;;;;0.97;100.00;101102.47;4966997;28;20198;-83
2022/02/26 07:57:37;;;;;;;30.15;18.70;;;;;;;1.18;100.00;101098.16;4974084;28;20230;-81
2022/02/26 08:00:05;;;;;;;27.15;19.33;;;;;;;1.36;100.00;101107.94;4959324;28;20283;-81
2022/02/26 08:02:31;;;;;;;28.80;18.90;;;;;;;1.55;100.00;101108.88;4965707;28;20201;-82
2022/02/26 08:04:58;;;;;;;26.75;17.70;;;;;;;1.71;100.00;101115.13;4959049;28;20199;-82
2022/02/26 08:07:26;;;;;;;22.10;16.48;;;;;;;1.58;100.00;101114.19;4970111;28;20195;-83
2022/02/26 08:09:53;;;;;;;23.85;17.30;;;;;;;1.71;100.00;101115.13;4967545;28;20230;-84
2022/02/26 08:12:19;;;;;;;24.77;17.63;;;;;;;1.84;100.00;101123.13;4954507;28;20291;-83
2022/02/26 08:14:46;;;;;;;23.25;16.60;;;;;;;1.93;100.00;101129.34;4966832;28;20200;-83
2022/02/26 08:17:13;;;;;;;26.58;17.63;;;;;;;2.06;100.00;101120.50;4953691;28;20535;-83
2022/02/26 08:19:40;;;;;;;24.27;16.33;;;;;;;2.26;100.00;101124.06;4962299;28;20188;-85
2022/02/26 08:22:07;;;;;;;26.65;16.52;;;;;;;2.38;100.00;101131.13;4956591;28;20199;-84
2022/02/26 08:24:36;;;;;;;24.88;15.45;;;;;;;2.66;100.00;101128.47;4956642;28;20189;-83
2022/02/26 08:27:03;;;;;;;24.98;15.70;;;;;;;2.91;100.00;101134.63;4950426;28;20651;-80
2022/02/26 08:29:31;;;;;;;22.90;14.65;;;;;;;3.26;100.00;101123.88;4955739;29;20214;-85
2022/02/26 08:31:58;;;;;;;21.65;15.45;;;;;;;3.50;100.00;101127.31;4955841;28;20232;-83
2022/02/26 08:34:25;;;;;;;22.85;16.25;;;;;;;3.58;100.00;101132.63;4956211;29;20189;-82
2022/02/26 08:36:52;;;;;;;23.75;16.98;;;;;;;3.57;100.00;101130.84;4955498;29;20198;-81
2022/02/26 08:39:18;;;;;;;24.90;15.65;;;;;;;3.75;100.00;101133.41;4954904;29;20190;-82
2022/02/26 08:41:46;;;;;;;23.30;14.73;;;;;;;4.02;100.00;101128.78;4954930;29;20193;-82
2022/02/26 08:44:13;;;;;;;24.58;16.42;;;;;;;4.18;100.00;101134.03;4954708;29;20548;-82
2022/02/26 08:46:40;;;;;;;20.10;15.30;;;;;;;4.12;100.00;101126.06;4954650;28;20264;-81
2022/02/26 08:49:06;;;;;;;20.73;15.88;;;;;;;4.36;100.00;101134.75;4955153;29;20243;-82
2022/02/26 08:51:33;;;;;;;27.33;16.25;;;;;;;4.74;100.00;101131.75;4955333;29;20195;-82
2022/02/26 08:54:00;;;;;;;23.35;16.73;;;;;;;4.86;100.00;101136.09;4955755;29;20195;-80
2022/02/26 08:56:26;;;;;;;22.48;16.33;;;;;;;5.01;100.00;101130.56;4953958;29;20361;-83
2022/02/26 08:58:55;;;;;;;22.83;16.25;;;;;;;4.99;100.00;101140.38;4954072;29;20334;-82
2022/02/26 09:01:22;;;;;;;18.80;14.40;;;;;;;5.31;100.00;101139.13;4955562;29;20263;-83
2022/02/26 09:03:49;;;;;;;25.58;16.80;;;;;;;5.38;100.00;101131.94;4955055;29;20236;-80
2022/02/26 09:06:15;;;;;;;25.88;16.55;;;;;;;4.92;100.00;101140.47;4955411;29;20224;-85
2022/02/26 09:08:42;;;;;;;20.92;14.30;;;;;;;4.86;100.00;101135.19;4955311;29;20222;-82
2022/02/26 09:11:09;;;;;;;16.70;12.82;;;;;;;5.28;100.00;101131.16;4955458;29;20721;-83
2022/02/26 09:13:37;;;;;;;21.13;13.90;;;;;;;5.37;100.00;101120.38;4954881;29;20563;-83
2022/02/26 09:16:06;;;;;;;19.70;13.55;;;;;;;5.35;100.00;101129.31;4955430;29;20193;-84
2022/02/26 09:18:33;;;;;;;21.67;14.43;;;;;;;5.38;100.00;101122.16;4953953;29;20206;-83
2022/02/26 09:21:00;;;;;;;14.77;11.48;;;;;;;5.15;100.00;101125.06;4955278;29;20279;-84
2022/02/26 09:23:28;;;;;;;19.70;10.75;;;;;;;5.00;100.00;101130.63;4955010;29;20552;-82
2022/02/26 09:25:55;;;;;;;15.90;9.38;;;;;;;5.23;100.00;101133.03;4954910;29;20524;-83
2022/02/26 09:28:21;;;;;;;10.40;5.47;;;;;;;5.18;100.00;101127.72;4955255;29;20227;-83
2022/02/26 09:30:48;;;;;;;14.32;7.30;;;;;;;5.12;100.00;101125.13;4960482;28;20325;-84
2022/02/26 09:33:17;;;;;;;11.57;6.35;;;;;;;5.06;100.00;101126.97;4965938;28;20195;-83
2022/02/26 09:35:44;;;;;;;11.32;6.20;;;;;;;4.90;100.00;101121.78;4974035;28;20241;-81
2022/02/26 09:38:11;;;;;;;12.13;6.35;;;;;;;5.17;100.00;101127.75;4969248;28;20666;-81
2022/02/26 09:40:38;;;;;;;12.32;5.93;;;;;;;5.04;98.93;101131.44;4964580;28;20476;-80
2022/02/26 09:43:05;;;;;;;10.60;5.15;;;;;;;5.14;94.06;101120.66;4954719;28;20208;-80
2022/02/26 09:45:32;;;;;;;9.13;7.38;;;;;;;5.09;93.76;101124.25;4954336;29;20189;-81
2022/02/26 09:47:58;;;;;;;13.73;4.50;;;;;;;5.28;88.54;101122.28;4954021;29;20196;-81
2022/02/26 09:50:26;;;;;;;14.82;3.92;;;;;;;5.48;81.30;101117.56;4954328;29;20225;-81
2022/02/26 09:52:53;;;;;;;11.23;4.28;;;;;;;5.43;80.07;101108.75;4957629;28;20198;-81
2022/02/26 09:55:20;;;;;;;11.38;3.72;;;;;;;5.52;81.74;101108.63;4966609;28;20218;-83
2022/02/26 09:57:47;;;;;;;11.27;4.50;;;;;;;5.71;76.83;101108.38;4951579;28;20223;-84
2022/02/26 10:00:29;;;;;;;11.60;4.65;;;;;;;6.20;77.42;101102.31;4966082;28;20198;-86
2022/02/26 10:02:56;;;;;;;8.35;3.75;;;;;;;6.48;73.82;101113.44;4882859;29;20216;-87
2022/02/26 10:05:22;;;;;;;9.18;4.25;;;;;;;6.31;73.42;101104.78;4895220;29;20293;-82
2022/02/26 10:07:51;;;;;;;11.30;4.30;;;;;;;6.23;77.14;101118.31;4895079;29;20703;-83
2022/02/26 10:10:20;;;;;;;10.80;4.75;;;;;;;6.08;77.54;101108.72;4894780;29;20207;-85
2022/02/26 10:12:51;;;;;;;8.07;3.80;;;;;;;5.54;74.07;101112.16;4894915;29;20210;-84
2022/02/26 10:15:25;;;;;;;8.95;3.42;;;;;;;5.52;74.67;101115.75;4895593;29;21196;-81
2022/02/26 10:18:06;;;;;;;9.35;3.25;;;;;;;5.75;73.06;101115.44;4894820;29;20201;-79
2022/02/26 10:20:34;;;;;;;11.05;3.58;;;;;;;6.30;69.87;101114.63;4894754;29;20654;-80
2022/02/26 10:23:02;;;;;;;7.88;3.13;;;;;;;6.29;67.94;101112.88;4894616;29;20194;-80
2022/02/26 10:25:31;;;;;;;7.03;4.93;;;;;;;5.80;69.03;101110.91;4895089;29;20209;-80
2022/02/26 10:28:01;;;;;;;9.82;3.50;;;;;;;6.03;69.85;101103.44;4893931;29;20234;-79
2022/02/26 10:30:29;;;;;;;6.82;2.83;;;;;;;6.20;69.40;101110.34;4908667;29;20241;-80
2022/02/26 10:33:06;;;;;;;11.52;2.92;;;;;;;6.32;69.20;101106.56;4894021;29;20302;-80
2022/02/26 10:35:35;;;;;;;5.82;3.25;;;;;;;6.29;67.85;101115.53;4894087;29;20303;-81
2022/02/26 10:38:18;;;;;;;6.32;3.20;;;;;;;6.30;68.23;101108.38;4894544;29;20195;-79
2022/02/26 10:40:58;;;;;;;10.88;3.33;;;;;;;6.35;67.85;101095.81;4937385;29;20588;-81
2022/02/26 10:43:39;;;;;;;9.15;3.35;;;;;;;6.47;69.50;101101.84;4952728;28;20655;-82
2022/02/26 10:46:17;;;;;;;9.20;2.88;;;;;;;6.75;66.55;101106.69;4953518;29;20204;-84
2022/02/26 10:48:44;;;;;;;14.27;3.40;;;;;;;7.03;65.90;101095.47;4954356;29;20201;-82
2022/02/26 10:51:15;;;;;;;13.80;4.80;;;;;;;7.34;69.42;101094.84;4965386;28;20258;-84
2022/02/26 10:53:44;;;;;;;10.25;4.00;;;;;;;7.49;67.57;101092.72;4974465;28;20637;-85
2022/02/26 10:56:12;;;;;;;16.23;3.90;;;;;;;7.57;65.50;101094.34;4966739;28;20208;-82
2022/02/26 10:58:39;;;;;;;13.55;4.45;;;;;;;7.82;66.78;101086.63;4968163;28;20697;-80
2022/02/26 11:01:09;;;;;;;9.52;4.90;;;;;;;7.79;62.67;101092.97;4955534;28;20710;-81
2022/02/26 11:03:37;;;;;;;16.95;4.53;;;;;;;8.03;59.43;101091.50;4953673;29;20200;-81
2022/02/26 11:06:05;;;;;;;8.70;3.35;;;;;;;8.10;58.45;101084.19;4953318;29;20204;-81
2022/02/26 11:08:32;;;;;;;9.80;3.95;;;;;;;8.14;59.01;101086.78;4953815;29;20204;-80
2022/02/26 11:11:04;;;;;;;9.15;4.50;;;;;;;8.02;59.36;101081.69;4963020;28;20247;-81
2022/02/26 11:13:32;;;;;;;8.20;3.40;;;;;;;8.02;58.48;101086.19;4974559;28;20223;-81